Love Boat — OT3861 — position and weather

sailwx.info

Track history (hours):
 
Tides and Currents Weather Stations Pressure Air Temp Water Temp Dewpoint Dewpoint Depression Visibility Wind Speed Wind Dir Waves Ship Positions

Love Boat

Last reported at 2016-Jul-25 15:28 UTC. Time now 2016-Jul-27 11:31 UTC.
Position N 50°50' E 006°60'.

Length 110 m.

Type: Ship. MMSI: 205386190.

Date/timePositionNaut miles runAvg speedWind from/ knotsBaromVisibWave heightAir tempDewpointWater temp
2016-Jul-25 15:28N 50°50' E 006°60'3 2.7
2016-Jul-25 14:31N 50°52' E 007°01'2 1.7
2016-Jul-25 13:25N 50°54' E 006°60'3 3.9
2016-Jul-25 12:33N 50°57' E 006°58'13 3.0
2016-Jul-25 08:08N 51°09' E 006°48'2 4.0
2016-Jul-25 07:33N 51°11' E 006°48'3 3.4
2016-Jul-25 06:33N 51°13' E 006°44'1 0.6
2016-Jul-25 05:33N 51°13' E 006°43'0 0.0
2016-Jul-25 04:33N 51°13' E 006°43'0 0.0
2016-Jul-25 03:33N 51°13' E 006°43'0 0.0
2016-Jul-25 02:33N 51°13' E 006°43'0 0.0
2016-Jul-25 01:33N 51°13' E 006°43'0 0.0
2016-Jul-25 00:33N 51°13' E 006°43'0 0.0
2016-Jul-24 23:33N 51°13' E 006°43'0 0.0
2016-Jul-24 22:33N 51°13' E 006°43'0 0.0
2016-Jul-24 21:33N 51°13' E 006°43'0 0.0
2016-Jul-24 20:33N 51°13' E 006°43'0 0.0
2016-Jul-24 19:33N 51°13' E 006°43'0 0.0
2016-Jul-24 18:33N 51°13' E 006°43'0 0.0
2016-Jul-24 17:33N 51°13' E 006°43'0 0.0
2016-Jul-24 16:33N 51°13' E 006°43'0 0.1
2016-Jul-24 15:33N 51°13' E 006°43'15 2.8
2016-Jul-24 10:13N 51°28' E 006°42'2 2.9
2016-Jul-24 09:28N 51°30' E 006°44'4 4.2
2016-Jul-24 08:33N 51°34' E 006°41'4 3.5
2016-Jul-24 07:32N 51°35' E 006°36'5 4.3
2016-Jul-24 06:28N 51°40' E 006°34'4 4.5
2016-Jul-24 05:33N 51°41' E 006°28'8 3.8
2016-Jul-24 03:24N 51°47' E 006°19'0 0.0
2016-Jul-24 02:30N 51°47' E 006°19'0 0.0
2016-Jul-24 01:29N 51°47' E 006°19'0 0.0
2016-Jul-24 00:33N 51°47' E 006°19'0 0.0
2016-Jul-23 23:33N 51°47' E 006°19'0 0.0
2016-Jul-23 22:33N 51°47' E 006°19'16 1.8
2016-Jul-23 13:20N 51°52' E 005°54'3 4.1
2016-Jul-23 12:32N 51°52' E 005°49'19 4.7
2016-Jul-23 08:33N 51°58' E 005°20'5 5.0
2016-Jul-23 07:32N 52°00' E 005°12'7 7.1
2016-Jul-23 06:33N 52°05' E 005°05'13 6.5
2016-Jul-23 04:33N 52°18' E 005°01'6 5.9
2016-Jul-23 03:34N 52°23' E 004°56'3 2.6
2016-Jul-23 02:33N 52°24' E 004°52'0 0.0
2016-Jul-23 01:33N 52°24' E 004°52'0 0.0
2016-Jul-23 00:33N 52°24' E 004°52'0 0.0
2016-Jul-22 23:33N 52°24' E 004°52'0 0.0
2016-Jul-22 22:33N 52°24' E 004°52'0 0.0
2016-Jul-22 21:33N 52°24' E 004°52'0 0.0
2016-Jul-22 20:33N 52°24' E 004°52'0 0.0
2016-Jul-22 19:33N 52°24' E 004°52'0 0.0
2016-Jul-22 18:34N 52°25' E 004°52'0 0.1
2016-Jul-22 17:34N 52°25' E 004°52'0 0.0
2016-Jul-22 16:34N 52°24' E 004°52'0 0.1
2016-Jul-22 15:33N 52°24' E 004°52'0 0.0
2016-Jul-22 14:33N 52°24' E 004°52'0 0.0
2016-Jul-22 13:33N 52°24' E 004°52'0 0.0
2016-Jul-22 12:33N 52°25' E 004°52'0 0.0
2016-Jul-22 11:33N 52°24' E 004°52'0 0.0
2016-Jul-22 10:33N 52°24' E 004°52'0 0.1
2016-Jul-22 09:33N 52°24' E 004°52'0 0.0
2016-Jul-22 08:33N 52°24' E 004°52'0 0.0
2016-Jul-22 07:33N 52°24' E 004°52'6 3.0
2016-Jul-22 05:33N 52°21' E 004°60'7 7.2
2016-Jul-22 04:32N 52°13' E 005°00'6 6.6
2016-Jul-22 03:33N 52°07' E 005°04'4 3.5
2016-Jul-22 02:33N 52°04' E 005°06'0 0.0
2016-Jul-22 01:33N 52°04' E 005°06'0 0.0
2016-Jul-22 00:33N 52°04' E 005°06'0 0.0
2016-Jul-21 23:33N 52°04' E 005°06'0 0.0
2016-Jul-21 22:33N 52°04' E 005°06'0 0.0
2016-Jul-21 21:33N 52°04' E 005°06'1 1.3
2016-Jul-21 20:33N 52°03' E 005°07'2 1.9
2016-Jul-21 19:32N 52°01' E 005°07'0 0.1
2016-Jul-21 17:24N 52°01' E 005°06'5 5.4
2016-Jul-21 16:28N 51°58' E 004°59'7 8.0
2016-Jul-21 15:33N 51°55' E 004°48'7 6.8
2016-Jul-21 14:33N 51°52' E 004°39'4 3.6
2016-Jul-21 13:33N 51°48' E 004°39'22 5.4
2016-Jul-21 09:31N 51°33' E 004°14'6 5.3
2016-Jul-21 08:26N 51°27' E 004°14'5 6.1
2016-Jul-21 07:33N 51°22' E 004°18'8 7.8
2016-Jul-21 06:33N 51°15' E 004°23'1 0.7
2016-Jul-21 05:33N 51°15' E 004°24'0 0.0
2016-Jul-21 04:33N 51°15' E 004°24'0 0.0
2016-Jul-21 03:33N 51°15' E 004°24'0 0.0
2016-Jul-21 02:33N 51°15' E 004°24'0 0.0
2016-Jul-21 01:33N 51°15' E 004°24'0 0.0
2016-Jul-21 00:33N 51°15' E 004°24'0 0.0
2016-Jul-20 23:33N 51°15' E 004°24'0 0.0
2016-Jul-20 22:34N 51°15' E 004°24'0 0.0
2016-Jul-20 21:33N 51°15' E 004°24'0 0.0
2016-Jul-20 20:33N 51°15' E 004°24'0 0.0
2016-Jul-20 19:34N 51°15' E 004°24'0 0.0
2016-Jul-20 18:34N 51°15' E 004°24'0 0.0
2016-Jul-20 17:33N 51°15' E 004°24'0 0.0
2016-Jul-20 16:33N 51°15' E 004°24'0 0.0
2016-Jul-20 15:33N 51°15' E 004°24'0 0.0
2016-Jul-20 14:34N 51°15' E 004°24'0 0.0
2016-Jul-20 13:34N 51°15' E 004°24'0 0.0
2016-Jul-20 12:33N 51°15' E 004°24'0 0.0
2016-Jul-20 11:33N 51°15' E 004°24'0 0.0
2016-Jul-20 10:33N 51°15' E 004°24'0 0.0
2016-Jul-20 09:34N 51°15' E 004°24'0 0.0
2016-Jul-20 08:34N 51°15' E 004°24'0 0.0
2016-Jul-20 07:33N 51°15' E 004°24'0 0.0
2016-Jul-20 06:34N 51°15' E 004°24'0 0.0
2016-Jul-20 05:33N 51°15' E 004°24'0 0.0
2016-Jul-20 04:34N 51°15' E 004°24'0 0.0
2016-Jul-20 03:33N 51°15' E 004°24'0 0.0
2016-Jul-20 02:33N 51°15' E 004°24'0 0.0
2016-Jul-20 01:33N 51°15' E 004°24'0 0.0
2016-Jul-20 00:33N 51°15' E 004°24'0 0.0
2016-Jul-19 23:34N 51°15' E 004°24'0 0.0
2016-Jul-19 22:34N 51°15' E 004°24'0 0.0
2016-Jul-19 21:33N 51°15' E 004°24'0 0.0
2016-Jul-19 20:34N 51°15' E 004°24'0 0.0
2016-Jul-19 19:34N 51°15' E 004°24'0 0.0
2016-Jul-19 18:33N 51°15' E 004°24'0 0.0
2016-Jul-19 17:33N 51°15' E 004°24'0 0.0
2016-Jul-19 16:33N 51°15' E 004°24'0 0.0
2016-Jul-19 15:33N 51°15' E 004°24'0 0.0
2016-Jul-19 14:34N 51°15' E 004°24'0 0.0
2016-Jul-19 13:33N 51°15' E 004°24'0 0.0
2016-Jul-19 12:34N 51°15' E 004°24'0 0.0
2016-Jul-19 11:33N 51°15' E 004°24'0 0.0
2016-Jul-19 10:33N 51°15' E 004°24'0 0.0
2016-Jul-19 09:33N 51°15' E 004°24'0 0.0
2016-Jul-19 08:33N 51°15' E 004°24'0 0.0
2016-Jul-19 07:34N 51°15' E 004°24'0 0.0
2016-Jul-19 04:34N 51°15' E 004°24'0 0.0
2016-Jul-19 03:33N 51°15' E 004°24'0 0.0
2016-Jul-19 02:33N 51°15' E 004°24'0 0.0
2016-Jul-19 01:33N 51°15' E 004°24'0 0.0
2016-Jul-19 00:34N 51°15' E 004°24'0 0.0
2016-Jul-18 23:33N 51°15' E 004°24'0 0.0
2016-Jul-18 22:33N 51°15' E 004°24'0 0.0
2016-Jul-18 21:33N 51°15' E 004°24'0 0.0
2016-Jul-18 20:34N 51°15' E 004°24'0 0.0
2016-Jul-18 19:34N 51°15' E 004°24'0 0.0
2016-Jul-18 18:33N 51°15' E 004°24'0 0.0
2016-Jul-18 17:34N 51°15' E 004°24'1 0.9
2016-Jul-18 16:34N 51°15' E 004°25'0 0.0
2016-Jul-18 15:33N 51°15' E 004°25'0 0.0
2016-Jul-18 14:33N 51°15' E 004°25'0 0.0
2016-Jul-18 13:33N 51°15' E 004°25'0 0.0
2016-Jul-18 12:34N 51°15' E 004°25'0 0.0
2016-Jul-18 11:33N 51°15' E 004°25'0 0.5
2016-Jul-18 10:33N 51°15' E 004°25'0 0.0
2016-Jul-18 09:34N 51°15' E 004°25'0 0.0
2016-Jul-18 08:33N 51°15' E 004°25'0 0.0
2016-Jul-18 07:34N 51°15' E 004°25'0 0.0
2016-Jul-18 06:33N 51°15' E 004°25'0 0.3
2016-Jul-18 05:34N 51°15' E 004°24'0 0.0
2016-Jul-18 04:34N 51°15' E 004°24'0 0.0
2016-Jul-18 03:33N 51°15' E 004°24'0 0.0
2016-Jul-18 02:32N 51°15' E 004°24'0 0.0
2016-Jul-18 01:33N 51°15' E 004°24'0 0.0
2016-Jul-18 00:33N 51°15' E 004°24'0 0.0
2016-Jul-17 23:33N 51°15' E 004°24'0 0.0
2016-Jul-17 22:33N 51°15' E 004°24'0 0.0
2016-Jul-17 21:34N 51°15' E 004°24'0 0.0
2016-Jul-17 20:34N 51°15' E 004°24'0 0.0
2016-Jul-17 19:34N 51°15' E 004°24'0 0.0
2016-Jul-17 18:34N 51°15' E 004°24'0 0.0
2016-Jul-17 17:33N 51°15' E 004°24'0 0.0
2016-Jul-17 16:33N 51°15' E 004°24'0 0.0
2016-Jul-17 15:33N 51°15' E 004°24'0 0.0
2016-Jul-17 14:33N 51°15' E 004°24'0 0.0
2016-Jul-17 13:33N 51°15' E 004°24'0 0.0
2016-Jul-17 12:33N 51°15' E 004°24'0 0.0
2016-Jul-17 11:34N 51°15' E 004°24'0 0.0
2016-Jul-17 10:33N 51°15' E 004°24'4 3.8
2016-Jul-17 09:33N 51°18' E 004°20'7 7.3
2016-Jul-17 08:33N 51°24' E 004°14'4 4.0
2016-Jul-17 07:31N 51°28' E 004°13'15 4.9
2016-Jul-17 04:28N 51°41' E 004°25'1 0.6
2016-Jul-17 02:23N 51°42' E 004°26'0 0.0
2016-Jul-17 00:33N 51°42' E 004°26'0 0.0
2016-Jul-16 23:33N 51°42' E 004°26'0 0.0
2016-Jul-16 22:30N 51°42' E 004°26'0 0.0
2016-Jul-16 21:33N 51°42' E 004°26'1 0.6
2016-Jul-16 19:22N 51°42' E 004°28'5 6.7
2016-Jul-16 18:33N 51°43' E 004°37'7 7.5
2016-Jul-16 17:33N 51°48' E 004°46'8 7.7
2016-Jul-16 16:33N 51°49' E 004°58'8 8.2
2016-Jul-16 15:33N 51°49' E 005°12'17 7.5
2016-Jul-16 13:16N 51°54' E 005°38'6 8.5
2016-Jul-16 12:33N 51°53' E 005°48'28 6.8
2016-Jul-16 08:21N 51°40' E 006°29'5 6.0
2016-Jul-16 07:33N 51°37' E 006°35'9 6.6
2016-Jul-16 06:13N 51°30' E 006°43'17 6.3
2016-Jul-16 03:33N 51°13' E 006°46'2 2.1
2016-Jul-16 02:33N 51°13' E 006°43'0 0.0
2016-Jul-16 01:34N 51°13' E 006°43'0 0.0
2016-Jul-16 00:33N 51°13' E 006°43'0 0.0
2016-Jul-15 23:33N 51°13' E 006°43'0 0.0
2016-Jul-15 22:34N 51°13' E 006°43'0 0.0
2016-Jul-15 21:33N 51°13' E 006°43'0 0.0
2016-Jul-15 20:33N 51°13' E 006°43'0 0.0
2016-Jul-15 19:34N 51°13' E 006°43'0 0.0
2016-Jul-15 18:33N 51°13' E 006°43'0 0.0
2016-Jul-15 17:33N 51°13' E 006°43'0 0.0
2016-Jul-15 16:33N 51°13' E 006°43'1 1.5
2016-Jul-15 15:34N 51°12' E 006°44'  
Track history (hours):
 
Tides and Currents Weather Stations Pressure Air Temp Water Temp Dewpoint Dewpoint Depression Visibility Wind Speed Wind Dir Waves Ship Positions

Love Boat

Last reported at 2016-Jul-25 15:28 UTC. Time now 2016-Jul-27 11:31 UTC.
Position N 50°50' E 006°60'.

Length 110 m.

Type: Ship. MMSI: 205386190.

Date/timePositionNaut miles runAvg speedWind from/ knotsBaromVisibWave heightAir tempDewpointWater temp
2016-Jul-25 15:28N 50°50' E 006°60'3 2.7
2016-Jul-25 14:31N 50°52' E 007°01'2 1.7
2016-Jul-25 13:25N 50°54' E 006°60'3 3.9
2016-Jul-25 12:33N 50°57' E 006°58'13 3.0
2016-Jul-25 08:08N 51°09' E 006°48'2 4.0
2016-Jul-25 07:33N 51°11' E 006°48'3 3.4
2016-Jul-25 06:33N 51°13' E 006°44'1 0.6
2016-Jul-25 05:33N 51°13' E 006°43'0 0.0
2016-Jul-25 04:33N 51°13' E 006°43'0 0.0
2016-Jul-25 03:33N 51°13' E 006°43'0 0.0
2016-Jul-25 02:33N 51°13' E 006°43'0 0.0
2016-Jul-25 01:33N 51°13' E 006°43'0 0.0
2016-Jul-25 00:33N 51°13' E 006°43'0 0.0
2016-Jul-24 23:33N 51°13' E 006°43'0 0.0
2016-Jul-24 22:33N 51°13' E 006°43'0 0.0
2016-Jul-24 21:33N 51°13' E 006°43'0 0.0
2016-Jul-24 20:33N 51°13' E 006°43'0 0.0
2016-Jul-24 19:33N 51°13' E 006°43'0 0.0
2016-Jul-24 18:33N 51°13' E 006°43'0 0.0
2016-Jul-24 17:33N 51°13' E 006°43'0 0.0
2016-Jul-24 16:33N 51°13' E 006°43'0 0.1
2016-Jul-24 15:33N 51°13' E 006°43'15 2.8
2016-Jul-24 10:13N 51°28' E 006°42'2 2.9
2016-Jul-24 09:28N 51°30' E 006°44'4 4.2
2016-Jul-24 08:33N 51°34' E 006°41'4 3.5
2016-Jul-24 07:32N 51°35' E 006°36'5 4.3
2016-Jul-24 06:28N 51°40' E 006°34'4 4.5
2016-Jul-24 05:33N 51°41' E 006°28'8 3.8
2016-Jul-24 03:24N 51°47' E 006°19'0 0.0
2016-Jul-24 02:30N 51°47' E 006°19'0 0.0
2016-Jul-24 01:29N 51°47' E 006°19'0 0.0
2016-Jul-24 00:33N 51°47' E 006°19'0 0.0
2016-Jul-23 23:33N 51°47' E 006°19'0 0.0
2016-Jul-23 22:33N 51°47' E 006°19'16 1.8
2016-Jul-23 13:20N 51°52' E 005°54'3 4.1
2016-Jul-23 12:32N 51°52' E 005°49'19 4.7
2016-Jul-23 08:33N 51°58' E 005°20'5 5.0
2016-Jul-23 07:32N 52°00' E 005°12'7 7.1
2016-Jul-23 06:33N 52°05' E 005°05'13 6.5
2016-Jul-23 04:33N 52°18' E 005°01'6 5.9
2016-Jul-23 03:34N 52°23' E 004°56'3 2.6
2016-Jul-23 02:33N 52°24' E 004°52'0 0.0
2016-Jul-23 01:33N 52°24' E 004°52'0 0.0
2016-Jul-23 00:33N 52°24' E 004°52'0 0.0
2016-Jul-22 23:33N 52°24' E 004°52'0 0.0
2016-Jul-22 22:33N 52°24' E 004°52'0 0.0
2016-Jul-22 21:33N 52°24' E 004°52'0 0.0
2016-Jul-22 20:33N 52°24' E 004°52'0 0.0
2016-Jul-22 19:33N 52°24' E 004°52'0 0.0
2016-Jul-22 18:34N 52°25' E 004°52'0 0.1
2016-Jul-22 17:34N 52°25' E 004°52'0 0.0
2016-Jul-22 16:34N 52°24' E 004°52'0 0.1
2016-Jul-22 15:33N 52°24' E 004°52'0 0.0
2016-Jul-22 14:33N 52°24' E 004°52'0 0.0
2016-Jul-22 13:33N 52°24' E 004°52'0 0.0
2016-Jul-22 12:33N 52°25' E 004°52'0 0.0
2016-Jul-22 11:33N 52°24' E 004°52'0 0.0
2016-Jul-22 10:33N 52°24' E 004°52'0 0.1
2016-Jul-22 09:33N 52°24' E 004°52'0 0.0
2016-Jul-22 08:33N 52°24' E 004°52'0 0.0
2016-Jul-22 07:33N 52°24' E 004°52'6 3.0
2016-Jul-22 05:33N 52°21' E 004°60'7 7.2
2016-Jul-22 04:32N 52°13' E 005°00'6 6.6
2016-Jul-22 03:33N 52°07' E 005°04'4 3.5
2016-Jul-22 02:33N 52°04' E 005°06'0 0.0
2016-Jul-22 01:33N 52°04' E 005°06'0 0.0
2016-Jul-22 00:33N 52°04' E 005°06'0 0.0
2016-Jul-21 23:33N 52°04' E 005°06'0 0.0
2016-Jul-21 22:33N 52°04' E 005°06'0 0.0
2016-Jul-21 21:33N 52°04' E 005°06'1 1.3
2016-Jul-21 20:33N 52°03' E 005°07'2 1.9
2016-Jul-21 19:32N 52°01' E 005°07'0 0.1
2016-Jul-21 17:24N 52°01' E 005°06'5 5.4
2016-Jul-21 16:28N 51°58' E 004°59'7 8.0
2016-Jul-21 15:33N 51°55' E 004°48'7 6.8
2016-Jul-21 14:33N 51°52' E 004°39'4 3.6
2016-Jul-21 13:33N 51°48' E 004°39'22 5.4
2016-Jul-21 09:31N 51°33' E 004°14'6 5.3
2016-Jul-21 08:26N 51°27' E 004°14'5 6.1
2016-Jul-21 07:33N 51°22' E 004°18'8 7.8
2016-Jul-21 06:33N 51°15' E 004°23'1 0.7
2016-Jul-21 05:33N 51°15' E 004°24'0 0.0
2016-Jul-21 04:33N 51°15' E 004°24'0 0.0
2016-Jul-21 03:33N 51°15' E 004°24'0 0.0
2016-Jul-21 02:33N 51°15' E 004°24'0 0.0
2016-Jul-21 01:33N 51°15' E 004°24'0 0.0
2016-Jul-21 00:33N 51°15' E 004°24'0 0.0
2016-Jul-20 23:33N 51°15' E 004°24'0 0.0
2016-Jul-20 22:34N 51°15' E 004°24'0 0.0
2016-Jul-20 21:33N 51°15' E 004°24'0 0.0
2016-Jul-20 20:33N 51°15' E 004°24'0 0.0
2016-Jul-20 19:34N 51°15' E 004°24'0 0.0
2016-Jul-20 18:34N 51°15' E 004°24'0 0.0
2016-Jul-20 17:33N 51°15' E 004°24'0 0.0
2016-Jul-20 16:33N 51°15' E 004°24'0 0.0
2016-Jul-20 15:33N 51°15' E 004°24'0 0.0
2016-Jul-20 14:34N 51°15' E 004°24'0 0.0
2016-Jul-20 13:34N 51°15' E 004°24'0 0.0
2016-Jul-20 12:33N 51°15' E 004°24'0 0.0
2016-Jul-20 11:33N 51°15' E 004°24'0 0.0
2016-Jul-20 10:33N 51°15' E 004°24'0 0.0
2016-Jul-20 09:34N 51°15' E 004°24'0 0.0
2016-Jul-20 08:34N 51°15' E 004°24'0 0.0
2016-Jul-20 07:33N 51°15' E 004°24'0 0.0
2016-Jul-20 06:34N 51°15' E 004°24'0 0.0
2016-Jul-20 05:33N 51°15' E 004°24'0 0.0
2016-Jul-20 04:34N 51°15' E 004°24'0 0.0
2016-Jul-20 03:33N 51°15' E 004°24'0 0.0
2016-Jul-20 02:33N 51°15' E 004°24'0 0.0
2016-Jul-20 01:33N 51°15' E 004°24'0 0.0
2016-Jul-20 00:33N 51°15' E 004°24'0 0.0
2016-Jul-19 23:34N 51°15' E 004°24'0 0.0
2016-Jul-19 22:34N 51°15' E 004°24'0 0.0
2016-Jul-19 21:33N 51°15' E 004°24'0 0.0
2016-Jul-19 20:34N 51°15' E 004°24'0 0.0
2016-Jul-19 19:34N 51°15' E 004°24'0 0.0
2016-Jul-19 18:33N 51°15' E 004°24'0 0.0
2016-Jul-19 17:33N 51°15' E 004°24'0 0.0
2016-Jul-19 16:33N 51°15' E 004°24'0 0.0
2016-Jul-19 15:33N 51°15' E 004°24'0 0.0
2016-Jul-19 14:34N 51°15' E 004°24'0 0.0
2016-Jul-19 13:33N 51°15' E 004°24'0 0.0
2016-Jul-19 12:34N 51°15' E 004°24'0 0.0
2016-Jul-19 11:33N 51°15' E 004°24'0 0.0
2016-Jul-19 10:33N 51°15' E 004°24'0 0.0
2016-Jul-19 09:33N 51°15' E 004°24'0 0.0
2016-Jul-19 08:33N 51°15' E 004°24'0 0.0
2016-Jul-19 07:34N 51°15' E 004°24'0 0.0
2016-Jul-19 04:34N 51°15' E 004°24'0 0.0
2016-Jul-19 03:33N 51°15' E 004°24'0 0.0
2016-Jul-19 02:33N 51°15' E 004°24'0 0.0
2016-Jul-19 01:33N 51°15' E 004°24'0 0.0
2016-Jul-19 00:34N 51°15' E 004°24'0 0.0
2016-Jul-18 23:33N 51°15' E 004°24'0 0.0
2016-Jul-18 22:33N 51°15' E 004°24'0 0.0
2016-Jul-18 21:33N 51°15' E 004°24'0 0.0
2016-Jul-18 20:34N 51°15' E 004°24'0 0.0
2016-Jul-18 19:34N 51°15' E 004°24'0 0.0
2016-Jul-18 18:33N 51°15' E 004°24'0 0.0
2016-Jul-18 17:34N 51°15' E 004°24'1 0.9
2016-Jul-18 16:34N 51°15' E 004°25'0 0.0
2016-Jul-18 15:33N 51°15' E 004°25'0 0.0
2016-Jul-18 14:33N 51°15' E 004°25'0 0.0
2016-Jul-18 13:33N 51°15' E 004°25'0 0.0
2016-Jul-18 12:34N 51°15' E 004°25'0 0.0
2016-Jul-18 11:33N 51°15' E 004°25'0 0.5
2016-Jul-18 10:33N 51°15' E 004°25'0 0.0
2016-Jul-18 09:34N 51°15' E 004°25'0 0.0
2016-Jul-18 08:33N 51°15' E 004°25'0 0.0
2016-Jul-18 07:34N 51°15' E 004°25'0 0.0
2016-Jul-18 06:33N 51°15' E 004°25'0 0.3
2016-Jul-18 05:34N 51°15' E 004°24'0 0.0
2016-Jul-18 04:34N 51°15' E 004°24'0 0.0
2016-Jul-18 03:33N 51°15' E 004°24'0 0.0
2016-Jul-18 02:32N 51°15' E 004°24'0 0.0
2016-Jul-18 01:33N 51°15' E 004°24'0 0.0
2016-Jul-18 00:33N 51°15' E 004°24'0 0.0
2016-Jul-17 23:33N 51°15' E 004°24'0 0.0
2016-Jul-17 22:33N 51°15' E 004°24'0 0.0
2016-Jul-17 21:34N 51°15' E 004°24'0 0.0
2016-Jul-17 20:34N 51°15' E 004°24'0 0.0
2016-Jul-17 19:34N 51°15' E 004°24'0 0.0
2016-Jul-17 18:34N 51°15' E 004°24'0 0.0
2016-Jul-17 17:33N 51°15' E 004°24'0 0.0
2016-Jul-17 16:33N 51°15' E 004°24'0 0.0
2016-Jul-17 15:33N 51°15' E 004°24'0 0.0
2016-Jul-17 14:33N 51°15' E 004°24'0 0.0
2016-Jul-17 13:33N 51°15' E 004°24'0 0.0
2016-Jul-17 12:33N 51°15' E 004°24'0 0.0
2016-Jul-17 11:34N 51°15' E 004°24'0 0.0
2016-Jul-17 10:33N 51°15' E 004°24'4 3.8
2016-Jul-17 09:33N 51°18' E 004°20'7 7.3
2016-Jul-17 08:33N 51°24' E 004°14'4 4.0
2016-Jul-17 07:31N 51°28' E 004°13'15 4.9
2016-Jul-17 04:28N 51°41' E 004°25'1 0.6
2016-Jul-17 02:23N 51°42' E 004°26'0 0.0
2016-Jul-17 00:33N 51°42' E 004°26'0 0.0
2016-Jul-16 23:33N 51°42' E 004°26'0 0.0
2016-Jul-16 22:30N 51°42' E 004°26'0 0.0
2016-Jul-16 21:33N 51°42' E 004°26'1 0.6
2016-Jul-16 19:22N 51°42' E 004°28'5 6.7
2016-Jul-16 18:33N 51°43' E 004°37'7 7.5
2016-Jul-16 17:33N 51°48' E 004°46'8 7.7
2016-Jul-16 16:33N 51°49' E 004°58'8 8.2
2016-Jul-16 15:33N 51°49' E 005°12'17 7.5
2016-Jul-16 13:16N 51°54' E 005°38'6 8.5
2016-Jul-16 12:33N 51°53' E 005°48'28 6.8
2016-Jul-16 08:21N 51°40' E 006°29'5 6.0
2016-Jul-16 07:33N 51°37' E 006°35'9 6.6
2016-Jul-16 06:13N 51°30' E 006°43'17 6.3
2016-Jul-16 03:33N 51°13' E 006°46'2 2.1
2016-Jul-16 02:33N 51°13' E 006°43'0 0.0
2016-Jul-16 01:34N 51°13' E 006°43'0 0.0
2016-Jul-16 00:33N 51°13' E 006°43'0 0.0
2016-Jul-15 23:33N 51°13' E 006°43'0 0.0
2016-Jul-15 22:34N 51°13' E 006°43'0 0.0
2016-Jul-15 21:33N 51°13' E 006°43'0 0.0
2016-Jul-15 20:33N 51°13' E 006°43'0 0.0
2016-Jul-15 19:34N 51°13' E 006°43'0 0.0
2016-Jul-15 18:33N 51°13' E 006°43'0 0.0
2016-Jul-15 17:33N 51°13' E 006°43'0 0.0
2016-Jul-15 16:33N 51°13' E 006°43'1 1.5
2016-Jul-15 15:34N 51°12' E 006°44'  

Dump ship's entire track history